createdAt,value
2023-02-12T00:01:23.825Z,17.13
2023-02-12T00:03:51.152Z,21.70
2023-02-12T00:06:18.320Z,20.87
2023-02-12T00:08:48.908Z,19.67
2023-02-12T00:11:20.866Z,13.60
2023-02-12T00:13:48.689Z,13.97
2023-02-12T00:16:20.867Z,25.33
2023-02-12T00:18:48.696Z,15.33
2023-02-12T00:21:17.312Z,16.97
2023-02-12T00:23:44.669Z,24.40
2023-02-12T00:26:16.434Z,16.90
2023-02-12T00:28:47.266Z,19.73
2023-02-12T00:31:21.835Z,11.90
2023-02-12T00:33:49.558Z,17.23
2023-02-12T00:36:21.590Z,17.60
2023-02-12T00:38:51.351Z,18.97
2023-02-12T00:41:18.503Z,14.43
2023-02-12T00:43:45.970Z,14.33
2023-02-12T00:46:13.254Z,17.23
2023-02-12T00:48:40.439Z,10.17
2023-02-12T00:51:08.275Z,15.43
2023-02-12T00:53:35.857Z,20.83
2023-02-12T00:56:03.447Z,13.67
2023-02-12T00:58:30.637Z,13.23
2023-02-12T01:01:00.039Z,15.07
2023-02-12T01:03:27.176Z,8.23
2023-02-12T01:05:54.810Z,15.80
2023-02-12T01:08:22.604Z,12.77
2023-02-12T01:11:00.520Z,5.70
2023-02-12T01:13:30.729Z,9.03
2023-02-12T01:16:15.324Z,14.27
2023-02-12T01:18:42.950Z,13.73
2023-02-12T01:21:36.599Z,13.20
2023-02-12T01:24:03.958Z,7.60
2023-02-12T01:26:32.276Z,7.13
2023-02-12T01:29:05.210Z,16.77
2023-02-12T01:31:39.104Z,19.13
2023-02-12T01:34:08.458Z,10.63
2023-02-12T01:36:36.017Z,9.97
2023-02-12T01:39:05.848Z,7.50
2023-02-12T01:41:43.319Z,11.60
2023-02-12T01:44:28.579Z,8.27
2023-02-12T01:47:05.136Z,8.63
2023-02-12T01:49:38.584Z,9.80
2023-02-12T01:52:11.239Z,11.33
2023-02-12T01:54:39.102Z,7.27
2023-02-12T01:57:10.294Z,6.33
2023-02-12T01:59:39.947Z,12.67
2023-02-12T02:02:07.243Z,7.70
2023-02-12T02:04:47.722Z,15.20
2023-02-12T02:07:15.135Z,11.80
2023-02-12T02:09:43.301Z,11.07
2023-02-12T02:12:29.397Z,12.53
2023-02-12T02:15:01.158Z,14.40
2023-02-12T02:17:47.342Z,10.60
2023-02-12T02:20:51.248Z,18.47
2023-02-12T02:23:55.265Z,8.93
2023-02-12T02:26:34.183Z,15.43
2023-02-12T02:29:43.326Z,14.07
2023-02-12T02:32:24.599Z,11.37
2023-02-12T02:35:11.637Z,12.73
2023-02-12T02:37:57.225Z,17.43
2023-02-12T02:40:33.633Z,14.97
2023-02-12T02:43:19.334Z,9.80
2023-02-12T02:45:57.832Z,12.43
2023-02-12T02:48:35.881Z,21.20
2023-02-12T02:51:19.187Z,11.83
2023-02-12T02:53:55.913Z,23.73
2023-02-12T02:56:25.233Z,20.20
2023-02-12T02:59:01.520Z,20.30
2023-02-12T03:01:40.573Z,23.87
2023-02-12T03:04:15.316Z,23.27
2023-02-12T03:06:59.496Z,17.37
2023-02-12T03:09:40.167Z,26.60
2023-02-12T03:12:22.648Z,17.03
2023-02-12T03:14:59.583Z,20.07
2023-02-12T03:17:43.346Z,14.30
2023-02-12T03:20:26.568Z,24.40
2023-02-12T03:23:09.923Z,16.70
2023-02-12T03:25:59.692Z,20.00
2023-02-12T03:28:34.594Z,20.13
2023-02-12T03:31:29.971Z,12.17
2023-02-12T03:34:16.218Z,15.13
2023-02-12T03:37:13.255Z,13.43
2023-02-12T03:40:04.438Z,19.40
2023-02-12T03:42:40.300Z,14.67
2023-02-12T03:45:12.284Z,29.83
2023-02-12T03:48:09.014Z,20.87
2023-02-12T03:50:42.490Z,18.97
2023-02-12T03:53:09.574Z,23.97
2023-02-12T03:55:42.447Z,24.87
2023-02-12T03:58:16.842Z,18.60
2023-02-12T04:00:44.387Z,13.27
2023-02-12T04:03:12.294Z,30.43
2023-02-12T04:05:39.469Z,13.53
2023-02-12T04:08:12.423Z,15.23
2023-02-12T04:11:13.701Z,13.93
2023-02-12T04:14:15.415Z,14.00
2023-02-12T04:17:05.164Z,23.47
2023-02-12T04:19:48.805Z,22.97
2023-02-12T04:23:01.957Z,19.63
2023-02-12T04:26:02.001Z,30.80
2023-02-12T04:29:00.419Z,20.90
2023-02-12T04:31:43.449Z,18.63
2023-02-12T04:34:38.111Z,16.97
2023-02-12T04:37:36.495Z,21.37
2023-02-12T04:40:09.758Z,15.40
2023-02-12T04:42:49.642Z,27.33
2023-02-12T04:45:24.958Z,32.30
2023-02-12T04:47:52.726Z,16.23
2023-02-12T04:50:20.124Z,23.37
2023-02-12T04:52:47.590Z,18.10
2023-02-12T04:55:15.872Z,20.80
2023-02-12T04:57:43.232Z,16.47
2023-02-12T05:00:15.435Z,18.67
2023-02-12T05:02:42.761Z,24.07
2023-02-12T05:05:09.864Z,24.73
2023-02-12T05:07:37.055Z,25.33
2023-02-12T05:10:04.566Z,17.60
2023-02-12T05:12:31.701Z,12.97
2023-02-12T05:14:58.834Z,16.67
2023-02-12T05:17:26.094Z,22.10
2023-02-12T05:19:53.268Z,20.03
2023-02-12T05:22:20.575Z,19.93
2023-02-12T05:24:47.889Z,17.33
2023-02-12T05:27:15.114Z,15.77
2023-02-12T05:29:42.263Z,11.47
2023-02-12T05:32:09.602Z,27.37
2023-02-12T05:34:37.273Z,31.23
2023-02-12T05:37:04.469Z,26.03
2023-02-12T05:39:31.793Z,29.47
2023-02-12T05:41:58.895Z,19.43
2023-02-12T05:44:25.962Z,22.20
2023-02-12T05:46:53.051Z,19.93
2023-02-12T05:49:20.175Z,19.30
2023-02-12T05:51:47.277Z,14.60
2023-02-12T05:54:14.423Z,15.23
2023-02-12T05:56:47.739Z,23.17
2023-02-12T05:59:21.861Z,18.43
2023-02-12T06:01:51.952Z,26.63
2023-02-12T06:04:25.590Z,15.93
2023-02-12T06:06:55.798Z,22.10
2023-02-12T06:09:24.119Z,23.93
2023-02-12T06:11:51.771Z,21.73
2023-02-12T06:14:20.875Z,26.50
2023-02-12T06:16:52.119Z,23.23
2023-02-12T06:19:20.521Z,25.73
2023-02-12T06:21:48.190Z,24.47
2023-02-12T06:24:17.162Z,21.00
2023-02-12T06:26:44.584Z,23.07
2023-02-12T06:29:13.393Z,14.80
2023-02-12T06:31:41.131Z,10.30
2023-02-12T06:34:11.539Z,18.80
2023-02-12T06:36:42.327Z,24.60
2023-02-12T06:39:11.149Z,13.53
2023-02-12T06:41:38.491Z,18.63
2023-02-12T06:44:06.906Z,17.30
2023-02-12T06:46:34.499Z,16.27
2023-02-12T06:49:01.656Z,24.30
2023-02-12T06:51:30.165Z,28.43
2023-02-12T06:53:58.368Z,18.00
2023-02-12T06:56:27.098Z,11.97
2023-02-12T06:58:58.179Z,29.37
2023-02-12T07:01:28.540Z,19.03
2023-02-12T07:04:02.553Z,23.83
2023-02-12T07:06:33.501Z,11.57
2023-02-12T07:09:01.073Z,15.00
2023-02-12T07:11:32.117Z,31.37
2023-02-12T07:13:59.493Z,19.47
2023-02-12T07:16:27.235Z,14.60
2023-02-12T07:18:55.178Z,26.50
2023-02-12T07:21:22.802Z,18.80
2023-02-12T07:23:52.678Z,23.63
2023-02-12T07:26:21.558Z,21.53
2023-02-12T07:28:50.425Z,28.53
2023-02-12T07:31:21.407Z,18.00
2023-02-12T07:33:49.780Z,21.10
2023-02-12T07:36:19.782Z,12.27
2023-02-12T07:38:47.775Z,30.53
2023-02-12T07:41:25.359Z,16.27
2023-02-12T07:43:59.827Z,17.47
2023-02-12T07:46:35.021Z,29.07
2023-02-12T07:49:06.629Z,17.10
2023-02-12T07:51:35.665Z,20.13
2023-02-12T07:54:04.426Z,33.33
2023-02-12T07:56:35.828Z,40.67
2023-02-12T07:59:07.506Z,13.90
2023-02-12T08:01:40.520Z,17.30
2023-02-12T08:04:16.005Z,41.50
2023-02-12T08:06:49.742Z,21.47
2023-02-12T08:09:21.653Z,22.07
2023-02-12T08:11:49.035Z,19.23
2023-02-12T08:14:20.185Z,22.77
2023-02-12T08:16:49.497Z,14.70
2023-02-12T08:19:21.699Z,14.90
2023-02-12T08:21:54.082Z,25.07
2023-02-12T08:24:24.730Z,35.13
2023-02-12T08:26:52.322Z,34.93
2023-02-12T08:29:24.444Z,22.40
2023-02-12T08:32:01.023Z,30.73
2023-02-12T08:34:34.948Z,25.93
2023-02-12T08:37:04.331Z,28.40
2023-02-12T08:39:31.514Z,16.87
2023-02-12T08:42:01.626Z,27.23
2023-02-12T08:44:29.188Z,32.47
2023-02-12T08:46:56.607Z,23.27
2023-02-12T08:49:30.329Z,19.13
2023-02-12T08:52:01.798Z,21.57
2023-02-12T08:54:31.611Z,23.87
2023-02-12T08:57:01.649Z,16.20
2023-02-12T08:59:29.539Z,27.13
2023-02-12T09:01:57.186Z,30.13
2023-02-12T09:04:27.823Z,8.97
2023-02-12T09:06:56.144Z,29.27
2023-02-12T09:09:23.613Z,27.77
2023-02-12T09:11:50.955Z,33.53
2023-02-12T09:14:24.089Z,31.50
2023-02-12T09:16:53.365Z,27.03
2023-02-12T09:19:21.006Z,42.87
2023-02-12T09:21:55.571Z,52.87
2023-02-12T09:24:27.874Z,23.00
2023-02-12T09:26:56.168Z,26.77
2023-02-12T09:29:23.327Z,22.33
2023-02-12T09:31:50.712Z,32.37
2023-02-12T09:34:17.919Z,26.87
2023-02-12T09:36:45.026Z,30.13
2023-02-12T09:39:12.323Z,27.50
2023-02-12T09:41:54.517Z,26.47
2023-02-12T09:44:37.798Z,34.50
2023-02-12T09:47:30.774Z,26.17
2023-02-12T09:50:39.088Z,25.30
2023-02-12T09:53:09.731Z,20.70
2023-02-12T09:55:37.001Z,30.53
2023-02-12T09:58:29.718Z,24.80
2023-02-12T10:00:57.218Z,27.13
2023-02-12T10:03:26.463Z,21.80
2023-02-12T10:06:04.942Z,21.70
2023-02-12T10:08:59.612Z,24.43
2023-02-12T10:11:48.272Z,19.87
2023-02-12T10:14:22.425Z,27.43
2023-02-12T10:17:13.545Z,25.90
2023-02-12T10:20:26.790Z,26.00
2023-02-12T10:23:38.845Z,25.43
2023-02-12T10:26:44.199Z,29.40
2023-02-12T10:29:28.955Z,23.30
2023-02-12T10:32:06.755Z,36.13
2023-02-12T10:34:37.176Z,13.13
2023-02-12T10:37:28.875Z,24.13
2023-02-12T10:40:05.219Z,23.83
2023-02-12T10:42:47.115Z,23.80
2023-02-12T10:45:21.340Z,12.87
2023-02-12T10:48:06.140Z,31.23
2023-02-12T10:50:59.244Z,21.63
2023-02-12T10:53:41.045Z,21.33
2023-02-12T10:56:17.452Z,12.20
2023-02-12T10:58:50.979Z,19.63
2023-02-12T11:01:26.352Z,24.33
2023-02-12T11:03:56.488Z,24.77
2023-02-12T11:06:28.234Z,13.43
2023-02-12T11:08:57.780Z,22.57
2023-02-12T11:11:38.403Z,19.13
2023-02-12T11:14:17.932Z,22.43
2023-02-12T11:17:00.335Z,27.90
2023-02-12T11:19:31.688Z,18.97
2023-02-12T11:22:14.581Z,20.30
2023-02-12T11:24:41.663Z,22.77
2023-02-12T11:27:28.833Z,18.50
2023-02-12T11:30:25.836Z,25.00
2023-02-12T11:32:53.270Z,22.60
2023-02-12T11:35:28.431Z,37.93
2023-02-12T11:37:59.709Z,30.80
2023-02-12T11:40:34.391Z,29.10
2023-02-12T11:43:06.790Z,20.33
2023-02-12T11:45:44.895Z,22.17
2023-02-12T11:48:30.361Z,22.33
2023-02-12T11:51:02.136Z,19.87
2023-02-12T11:53:37.421Z,20.90
2023-02-12T11:56:15.112Z,29.00
2023-02-12T11:58:42.963Z,22.07
2023-02-12T12:01:35.990Z,18.60
2023-02-12T12:04:16.298Z,16.40
2023-02-12T12:06:51.225Z,14.67
2023-02-12T12:09:39.761Z,15.57
2023-02-12T12:12:16.331Z,8.90
2023-02-12T12:15:12.851Z,14.70
2023-02-12T12:18:15.099Z,8.00
2023-02-12T12:21:01.792Z,11.23
2023-02-12T12:23:46.062Z,8.50
2023-02-12T12:26:29.399Z,5.17
2023-02-12T12:29:20.908Z,5.50
2023-02-12T12:31:58.089Z,7.37
2023-02-12T12:34:27.973Z,9.33
2023-02-12T12:37:06.938Z,3.63
2023-02-12T12:40:19.606Z,7.10
2023-02-12T12:43:21.130Z,8.53
2023-02-12T12:46:08.010Z,4.23
2023-02-12T12:49:30.271Z,2.60
2023-02-12T12:52:46.587Z,3.70
2023-02-12T12:55:55.303Z,3.40
2023-02-12T12:59:04.650Z,7.30
2023-02-12T13:02:13.205Z,3.03
2023-02-12T13:05:21.403Z,2.47
2023-02-12T13:08:47.497Z,3.43
2023-02-12T13:11:17.179Z,4.40
2023-02-12T13:13:49.884Z,12.23
2023-02-12T13:16:33.864Z,7.13
2023-02-12T13:19:23.257Z,5.63
2023-02-12T13:22:16.965Z,2.90
2023-02-12T13:25:18.824Z,3.90
2023-02-12T13:27:48.996Z,6.07
2023-02-12T13:30:26.475Z,4.13
2023-02-12T13:33:11.636Z,5.63
2023-02-12T13:35:46.564Z,4.00
2023-02-12T13:38:25.882Z,4.50
2023-02-12T13:41:01.586Z,6.83
2023-02-12T13:43:44.033Z,4.90
2023-02-12T13:46:48.121Z,7.33
2023-02-12T13:49:25.237Z,10.70
2023-02-12T13:52:39.256Z,5.10
2023-02-12T13:55:37.879Z,15.50
2023-02-12T13:58:39.526Z,10.63
2023-02-12T14:01:11.786Z,7.53
2023-02-12T14:03:40.180Z,5.10
2023-02-12T14:06:21.707Z,6.83
2023-02-12T14:08:54.671Z,2.93
2023-02-12T14:11:26.269Z,10.53
2023-02-12T14:14:00.557Z,7.43
2023-02-12T14:16:30.604Z,10.27
2023-02-12T14:19:54.137Z,3.90
2023-02-12T14:22:44.555Z,7.37
2023-02-12T14:25:37.175Z,6.53
2023-02-12T14:28:34.400Z,6.70
2023-02-12T14:31:20.192Z,4.97
2023-02-12T14:34:12.672Z,6.77
2023-02-12T14:36:44.035Z,6.60
2023-02-12T14:39:20.442Z,3.90
2023-02-12T14:42:14.536Z,5.10
2023-02-12T14:45:28.599Z,4.67
2023-02-12T14:47:56.102Z,3.80
2023-02-12T14:50:37.368Z,5.40
2023-02-12T14:53:22.633Z,8.30
2023-02-12T14:55:51.843Z,4.40
2023-02-12T14:58:24.551Z,8.10
2023-02-12T15:00:56.457Z,6.10
2023-02-12T15:03:34.770Z,2.70
2023-02-12T15:06:13.486Z,2.80
2023-02-12T15:09:06.887Z,9.20
2023-02-12T15:11:47.032Z,3.63
2023-02-12T15:14:28.343Z,3.77
2023-02-12T15:17:37.490Z,4.77
2023-02-12T15:20:31.568Z,8.60
2023-02-12T15:22:58.667Z,12.80
2023-02-12T15:25:30.266Z,12.77
2023-02-12T15:28:21.717Z,7.63
2023-02-12T15:30:57.502Z,13.43
2023-02-12T15:33:36.319Z,4.93
2023-02-12T15:36:04.635Z,12.60
2023-02-12T15:38:36.514Z,6.33
2023-02-12T15:41:05.629Z,15.33
2023-02-12T15:43:39.675Z,17.50
2023-02-12T15:46:17.898Z,15.77
2023-02-12T15:48:45.934Z,8.20
2023-02-12T15:51:41.639Z,7.07
2023-02-12T15:54:20.485Z,9.33
2023-02-12T15:56:47.853Z,9.10
2023-02-12T15:59:29.236Z,5.43
2023-02-12T16:02:03.551Z,5.90
2023-02-12T16:04:41.962Z,7.23
2023-02-12T16:07:13.328Z,3.07
2023-02-12T16:09:42.673Z,4.00
2023-02-12T16:12:17.511Z,5.30
2023-02-12T16:14:53.007Z,5.20
2023-02-12T16:17:25.879Z,4.80
2023-02-12T16:19:57.522Z,7.50
2023-02-12T16:22:38.990Z,6.50
2023-02-12T16:25:18.399Z,6.20
2023-02-12T16:28:01.626Z,3.03
2023-02-12T16:30:39.205Z,3.27
2023-02-12T16:33:58.565Z,5.60
2023-02-12T16:36:25.619Z,5.77
2023-02-12T16:39:08.515Z,3.10
2023-02-12T16:41:55.669Z,6.20
2023-02-12T16:44:27.946Z,4.37
2023-02-12T16:47:00.063Z,4.27
2023-02-12T16:49:28.036Z,3.30
2023-02-12T16:52:22.990Z,2.97
2023-02-12T16:54:50.135Z,2.73
2023-02-12T16:57:17.314Z,4.73
2023-02-12T16:59:45.308Z,2.30
2023-02-12T17:02:15.277Z,8.73
2023-02-12T17:04:42.501Z,4.73
2023-02-12T17:07:29.159Z,1.80
2023-02-12T17:09:56.250Z,5.77
2023-02-12T17:12:24.000Z,5.17
2023-02-12T17:14:51.145Z,3.00
2023-02-12T17:17:18.844Z,6.33
2023-02-12T17:19:46.004Z,3.03
2023-02-12T17:22:26.528Z,2.87
2023-02-12T17:24:54.718Z,4.83
2023-02-12T17:27:22.037Z,5.57
2023-02-12T17:29:49.249Z,3.47
2023-02-12T17:32:16.512Z,10.10
2023-02-12T17:34:49.090Z,3.13
2023-02-12T17:37:17.969Z,11.40
2023-02-12T17:39:45.305Z,4.70
2023-02-12T17:42:12.393Z,5.10
2023-02-12T17:44:40.189Z,5.90
2023-02-12T17:47:07.655Z,5.57
2023-02-12T17:49:35.577Z,4.17
2023-02-12T17:52:04.686Z,4.53
2023-02-12T17:54:32.919Z,3.37
2023-02-12T17:57:00.001Z,4.80
2023-02-12T17:59:27.121Z,4.87
2023-02-12T18:01:54.212Z,4.47
2023-02-12T18:04:21.349Z,5.70
2023-02-12T18:06:48.502Z,4.43
2023-02-12T18:09:15.570Z,4.60
2023-02-12T18:11:42.629Z,4.50
2023-02-12T18:14:11.785Z,1.63
2023-02-12T18:16:38.981Z,2.23
2023-02-12T18:19:06.375Z,3.63
2023-02-12T18:21:36.605Z,4.17
2023-02-12T18:24:04.434Z,13.43
2023-02-12T18:26:33.123Z,4.83
2023-02-12T18:29:01.292Z,2.83
2023-02-12T18:31:29.126Z,3.40
2023-02-12T18:33:56.457Z,3.57
2023-02-12T18:36:23.943Z,1.13
2023-02-12T18:38:52.361Z,3.87
2023-02-12T18:41:26.961Z,1.43
2023-02-12T18:43:54.983Z,1.90
2023-02-12T18:46:27.896Z,3.70
2023-02-12T18:48:55.325Z,5.00
2023-02-12T18:51:29.438Z,2.13
2023-02-12T18:54:02.848Z,4.80
2023-02-12T18:56:37.979Z,2.37
2023-02-12T18:59:07.028Z,2.10
2023-02-12T19:01:36.176Z,5.63
2023-02-12T19:04:06.935Z,3.80
2023-02-12T19:06:42.815Z,2.97
2023-02-12T19:09:12.684Z,3.50
2023-02-12T19:11:39.807Z,4.67
2023-02-12T19:14:07.077Z,3.37
2023-02-12T19:16:34.528Z,4.30
2023-02-12T19:19:03.049Z,3.03
2023-02-12T19:21:30.881Z,4.27
2023-02-12T19:24:01.800Z,4.20
2023-02-12T19:26:30.883Z,4.73
2023-02-12T19:28:59.343Z,5.63
2023-02-12T19:31:35.152Z,2.00
2023-02-12T19:34:07.048Z,6.13
2023-02-12T19:36:36.744Z,5.57
2023-02-12T19:39:06.122Z,8.17
2023-02-12T19:41:40.780Z,4.10
2023-02-12T19:44:13.696Z,5.33
2023-02-12T19:46:41.504Z,2.70
2023-02-12T19:49:18.573Z,4.27
2023-02-12T19:51:46.095Z,2.87
2023-02-12T19:54:15.780Z,5.50
2023-02-12T19:56:42.988Z,4.10
2023-02-12T19:59:17.373Z,4.47
2023-02-12T20:01:46.159Z,4.70
2023-02-12T20:04:19.572Z,3.80
2023-02-12T20:06:51.328Z,3.80
2023-02-12T20:09:21.768Z,3.90
2023-02-12T20:11:49.544Z,2.53
2023-02-12T20:14:17.412Z,2.63
2023-02-12T20:16:46.726Z,2.90
2023-02-12T20:19:22.759Z,4.10
2023-02-12T20:21:55.945Z,5.33
2023-02-12T20:24:26.584Z,3.27
2023-02-12T20:26:55.064Z,4.30
2023-02-12T20:29:23.563Z,2.23
2023-02-12T20:31:51.278Z,5.77
2023-02-12T20:34:20.652Z,5.47
2023-02-12T20:36:48.796Z,2.83
2023-02-12T20:39:19.229Z,5.67
2023-02-12T20:41:47.506Z,3.03
2023-02-12T20:44:18.702Z,4.00
2023-02-12T20:46:47.641Z,2.90
2023-02-12T20:49:16.915Z,1.23
2023-02-12T20:51:45.719Z,2.50
2023-02-12T20:54:13.058Z,4.40
2023-02-12T20:56:40.162Z,4.87
2023-02-12T20:59:07.876Z,5.57
2023-02-12T21:01:38.957Z,2.90
2023-02-12T21:04:10.378Z,4.23
2023-02-12T21:06:42.037Z,1.40
2023-02-12T21:09:11.954Z,4.40
2023-02-12T21:11:42.110Z,2.73
2023-02-12T21:14:26.025Z,2.63
2023-02-12T21:16:55.864Z,3.53
2023-02-12T21:19:24.234Z,5.10
2023-02-12T21:21:51.557Z,3.60
2023-02-12T21:24:23.590Z,2.23
2023-02-12T21:26:52.889Z,4.30
2023-02-12T21:29:20.388Z,5.70
2023-02-12T21:31:50.475Z,5.43
2023-02-12T21:34:23.499Z,3.90
2023-02-12T21:36:53.968Z,1.60
2023-02-12T21:39:28.139Z,4.00
2023-02-12T21:42:02.932Z,3.00
2023-02-12T21:44:35.353Z,3.70
2023-02-12T21:47:02.838Z,2.00
2023-02-12T21:49:29.977Z,5.47
2023-02-12T21:52:03.724Z,1.93
2023-02-12T21:54:31.283Z,2.10
2023-02-12T21:56:59.541Z,2.90
2023-02-12T21:59:30.128Z,2.40
2023-02-12T22:01:59.297Z,2.70
2023-02-12T22:04:27.350Z,4.13
2023-02-12T22:06:54.845Z,4.63
2023-02-12T22:09:23.266Z,1.83
2023-02-12T22:11:52.418Z,4.03
2023-02-12T22:14:21.850Z,4.80
2023-02-12T22:16:49.578Z,6.50
2023-02-12T22:19:16.862Z,4.73
2023-02-12T22:21:44.500Z,4.03
2023-02-12T22:24:16.013Z,3.70
2023-02-12T22:26:44.281Z,4.00
2023-02-12T22:29:15.073Z,7.33
2023-02-12T22:31:44.928Z,6.00
2023-02-12T22:34:17.052Z,4.27
2023-02-12T22:36:46.381Z,3.20
2023-02-12T22:39:14.618Z,6.73
2023-02-12T22:41:42.557Z,6.20
2023-02-12T22:44:12.613Z,9.50
2023-02-12T22:46:41.014Z,3.03
2023-02-12T22:49:08.114Z,3.83
2023-02-12T22:51:36.988Z,2.63
2023-02-12T22:54:06.224Z,2.97
2023-02-12T22:56:34.057Z,3.23
2023-02-12T22:59:02.320Z,4.13
2023-02-12T23:01:30.555Z,2.73
2023-02-12T23:03:58.250Z,2.83
2023-02-12T23:06:30.853Z,3.60
2023-02-12T23:09:04.751Z,6.87
2023-02-12T23:11:33.838Z,6.13
2023-02-12T23:14:01.229Z,8.10
2023-02-12T23:16:28.799Z,4.97
2023-02-12T23:19:01.336Z,7.50
2023-02-12T23:21:31.502Z,7.50
2023-02-12T23:23:59.669Z,5.60
2023-02-12T23:26:28.773Z,3.03
2023-02-12T23:28:57.280Z,2.07
2023-02-12T23:31:25.344Z,4.87
2023-02-12T23:33:52.541Z,6.70
2023-02-12T23:36:19.664Z,5.07
2023-02-12T23:38:46.934Z,6.97
2023-02-12T23:41:14.114Z,9.90
2023-02-12T23:43:41.301Z,4.57
2023-02-12T23:46:09.415Z,3.70
2023-02-12T23:48:36.707Z,2.90
2023-02-12T23:51:04.464Z,5.37
2023-02-12T23:53:31.590Z,3.43
2023-02-12T23:55:58.816Z,5.70
2023-02-12T23:58:25.929Z,3.57
